sensor_id;sensor_type;location;lat;lon;timestamp;P1;durP1;ratioP1;P2;durP2;ratioP2
11522;SDS011;70090;43.208;27.904;2023-07-30T00:02:14;5.40;;;4.20;;
11522;SDS011;70090;43.208;27.904;2023-07-30T00:04:42;6.23;;;4.10;;
11522;SDS011;70090;43.208;27.904;2023-07-30T00:07:08;8.27;;;4.37;;
11522;SDS011;70090;43.208;27.904;2023-07-30T00:09:35;5.30;;;3.77;;
11522;SDS011;70090;43.208;27.904;2023-07-30T00:12:03;8.63;;;4.00;;
11522;SDS011;70090;43.208;27.904;2023-07-30T00:14:30;8.10;;;3.90;;
11522;SDS011;70090;43.208;27.904;2023-07-30T00:16:58;5.17;;;3.80;;
11522;SDS011;70090;43.208;27.904;2023-07-30T00:19:25;7.20;;;4.30;;
11522;SDS011;70090;43.208;27.904;2023-07-30T00:21:52;9.90;;;4.20;;
11522;SDS011;70090;43.208;27.904;2023-07-30T00:24:19;6.53;;;4.20;;
11522;SDS011;70090;43.208;27.904;2023-07-30T00:26:45;7.53;;;4.07;;
11522;SDS011;70090;43.208;27.904;2023-07-30T00:29:12;5.63;;;4.10;;
11522;SDS011;70090;43.208;27.904;2023-07-30T00:31:39;7.37;;;4.10;;
11522;SDS011;70090;43.208;27.904;2023-07-30T00:34:07;6.30;;;3.90;;
11522;SDS011;70090;43.208;27.904;2023-07-30T00:36:34;6.37;;;3.80;;
11522;SDS011;70090;43.208;27.904;2023-07-30T00:39:01;5.47;;;3.97;;
11522;SDS011;70090;43.208;27.904;2023-07-30T00:41:28;4.33;;;3.30;;
11522;SDS011;70090;43.208;27.904;2023-07-30T00:43:55;5.87;;;3.60;;
11522;SDS011;70090;43.208;27.904;2023-07-30T00:46:22;6.67;;;3.90;;
11522;SDS011;70090;43.208;27.904;2023-07-30T00:48:49;5.90;;;4.40;;
11522;SDS011;70090;43.208;27.904;2023-07-30T00:51:18;6.97;;;4.50;;
11522;SDS011;70090;43.208;27.904;2023-07-30T00:53:46;5.13;;;4.63;;
11522;SDS011;70090;43.208;27.904;2023-07-30T00:56:13;5.87;;;4.60;;
11522;SDS011;70090;43.208;27.904;2023-07-30T00:58:41;5.47;;;4.40;;
11522;SDS011;70090;43.208;27.904;2023-07-30T01:01:10;5.57;;;4.07;;
11522;SDS011;70090;43.208;27.904;2023-07-30T01:03:38;7.27;;;4.40;;
11522;SDS011;70090;43.208;27.904;2023-07-30T01:06:05;7.53;;;4.30;;
11522;SDS011;70090;43.208;27.904;2023-07-30T01:08:34;7.70;;;4.17;;
11522;SDS011;70090;43.208;27.904;2023-07-30T01:11:01;8.10;;;4.67;;
11522;SDS011;70090;43.208;27.904;2023-07-30T01:13:30;6.93;;;4.60;;
11522;SDS011;70090;43.208;27.904;2023-07-30T01:15:58;9.63;;;4.70;;
11522;SDS011;70090;43.208;27.904;2023-07-30T01:18:25;6.67;;;4.53;;
11522;SDS011;70090;43.208;27.904;2023-07-30T01:20:54;6.47;;;4.60;;
11522;SDS011;70090;43.208;27.904;2023-07-30T01:23:24;5.53;;;4.43;;
11522;SDS011;70090;43.208;27.904;2023-07-30T01:25:52;8.03;;;4.93;;
11522;SDS011;70090;43.208;27.904;2023-07-30T01:28:27;7.23;;;4.83;;
11522;SDS011;70090;43.208;27.904;2023-07-30T01:30:55;6.40;;;4.83;;
11522;SDS011;70090;43.208;27.904;2023-07-30T01:33:24;7.43;;;4.77;;
11522;SDS011;70090;43.208;27.904;2023-07-30T01:35:51;8.00;;;4.80;;
11522;SDS011;70090;43.208;27.904;2023-07-30T01:38:22;7.23;;;5.23;;
11522;SDS011;70090;43.208;27.904;2023-07-30T01:40:49;6.70;;;5.00;;
11522;SDS011;70090;43.208;27.904;2023-07-30T01:43:16;6.13;;;4.60;;
11522;SDS011;70090;43.208;27.904;2023-07-30T01:45:43;6.80;;;4.97;;
11522;SDS011;70090;43.208;27.904;2023-07-30T01:48:10;8.10;;;4.83;;
11522;SDS011;70090;43.208;27.904;2023-07-30T01:50:36;8.10;;;5.13;;
11522;SDS011;70090;43.208;27.904;2023-07-30T01:53:05;7.00;;;4.70;;
11522;SDS011;70090;43.208;27.904;2023-07-30T01:55:32;6.07;;;4.47;;
11522;SDS011;70090;43.208;27.904;2023-07-30T01:57:59;10.30;;;4.83;;
11522;SDS011;70090;43.208;27.904;2023-07-30T02:00:25;5.33;;;4.43;;
11522;SDS011;70090;43.208;27.904;2023-07-30T02:02:52;7.40;;;5.97;;
11522;SDS011;70090;43.208;27.904;2023-07-30T02:05:19;7.77;;;5.60;;
11522;SDS011;70090;43.208;27.904;2023-07-30T02:07:46;6.50;;;5.30;;
11522;SDS011;70090;43.208;27.904;2023-07-30T02:10:14;7.80;;;4.63;;
11522;SDS011;70090;43.208;27.904;2023-07-30T02:12:41;6.20;;;4.57;;
11522;SDS011;70090;43.208;27.904;2023-07-30T02:15:08;5.00;;;4.10;;
11522;SDS011;70090;43.208;27.904;2023-07-30T02:17:35;5.33;;;3.90;;
11522;SDS011;70090;43.208;27.904;2023-07-30T02:20:02;4.40;;;4.00;;
11522;SDS011;70090;43.208;27.904;2023-07-30T02:22:29;4.47;;;4.13;;
11522;SDS011;70090;43.208;27.904;2023-07-30T02:24:56;5.03;;;4.47;;
11522;SDS011;70090;43.208;27.904;2023-07-30T02:27:24;6.97;;;3.90;;
11522;SDS011;70090;43.208;27.904;2023-07-30T02:29:51;5.47;;;4.10;;
11522;SDS011;70090;43.208;27.904;2023-07-30T02:32:18;4.93;;;4.27;;
11522;SDS011;70090;43.208;27.904;2023-07-30T02:34:45;5.37;;;4.20;;
11522;SDS011;70090;43.208;27.904;2023-07-30T02:37:12;5.27;;;4.77;;
11522;SDS011;70090;43.208;27.904;2023-07-30T02:39:39;6.07;;;4.70;;
11522;SDS011;70090;43.208;27.904;2023-07-30T02:42:06;6.77;;;5.03;;
11522;SDS011;70090;43.208;27.904;2023-07-30T02:44:34;5.87;;;5.27;;
11522;SDS011;70090;43.208;27.904;2023-07-30T02:47:01;6.23;;;5.67;;
11522;SDS011;70090;43.208;27.904;2023-07-30T02:49:28;7.50;;;6.80;;
11522;SDS011;70090;43.208;27.904;2023-07-30T02:51:55;8.10;;;6.13;;
11522;SDS011;70090;43.208;27.904;2023-07-30T02:54:22;7.57;;;6.20;;
11522;SDS011;70090;43.208;27.904;2023-07-30T02:56:49;5.63;;;5.13;;
11522;SDS011;70090;43.208;27.904;2023-07-30T02:59:16;7.83;;;5.77;;
11522;SDS011;70090;43.208;27.904;2023-07-30T03:01:44;7.67;;;5.47;;
11522;SDS011;70090;43.208;27.904;2023-07-30T03:04:11;7.07;;;5.93;;
11522;SDS011;70090;43.208;27.904;2023-07-30T03:06:37;7.40;;;6.10;;
11522;SDS011;70090;43.208;27.904;2023-07-30T03:09:04;6.63;;;5.67;;
11522;SDS011;70090;43.208;27.904;2023-07-30T03:11:31;9.47;;;6.00;;
11522;SDS011;70090;43.208;27.904;2023-07-30T03:13:58;8.17;;;5.90;;
11522;SDS011;70090;43.208;27.904;2023-07-30T03:16:25;9.57;;;6.63;;
11522;SDS011;70090;43.208;27.904;2023-07-30T03:18:53;7.03;;;5.80;;
11522;SDS011;70090;43.208;27.904;2023-07-30T03:21:20;7.67;;;6.50;;
11522;SDS011;70090;43.208;27.904;2023-07-30T03:23:47;8.40;;;6.60;;
11522;SDS011;70090;43.208;27.904;2023-07-30T03:26:14;7.43;;;6.47;;
11522;SDS011;70090;43.208;27.904;2023-07-30T03:28:40;10.00;;;8.97;;
11522;SDS011;70090;43.208;27.904;2023-07-30T03:31:07;10.27;;;6.57;;
11522;SDS011;70090;43.208;27.904;2023-07-30T03:33:34;8.27;;;7.47;;
11522;SDS011;70090;43.208;27.904;2023-07-30T03:36:03;8.10;;;7.30;;
11522;SDS011;70090;43.208;27.904;2023-07-30T03:38:30;9.40;;;7.17;;
11522;SDS011;70090;43.208;27.904;2023-07-30T03:40:56;8.03;;;6.83;;
11522;SDS011;70090;43.208;27.904;2023-07-30T03:43:23;7.70;;;7.00;;
11522;SDS011;70090;43.208;27.904;2023-07-30T03:45:50;8.87;;;6.97;;
11522;SDS011;70090;43.208;27.904;2023-07-30T03:48:17;8.20;;;7.40;;
11522;SDS011;70090;43.208;27.904;2023-07-30T03:50:44;7.40;;;6.60;;
11522;SDS011;70090;43.208;27.904;2023-07-30T03:53:12;7.63;;;6.93;;
11522;SDS011;70090;43.208;27.904;2023-07-30T03:55:39;7.90;;;6.87;;
11522;SDS011;70090;43.208;27.904;2023-07-30T03:58:06;7.30;;;6.60;;
11522;SDS011;70090;43.208;27.904;2023-07-30T04:00:33;10.80;;;6.90;;
11522;SDS011;70090;43.208;27.904;2023-07-30T04:03:00;8.33;;;7.20;;
11522;SDS011;70090;43.208;27.904;2023-07-30T04:05:27;7.17;;;6.43;;
11522;SDS011;70090;43.208;27.904;2023-07-30T04:07:54;8.57;;;7.33;;
11522;SDS011;70090;43.208;27.904;2023-07-30T04:10:22;8.87;;;7.33;;
11522;SDS011;70090;43.208;27.904;2023-07-30T04:12:49;8.60;;;7.70;;
11522;SDS011;70090;43.208;27.904;2023-07-30T04:15:16;8.27;;;7.33;;
11522;SDS011;70090;43.208;27.904;2023-07-30T04:17:43;9.10;;;6.90;;
11522;SDS011;70090;43.208;27.904;2023-07-30T04:20:10;10.30;;;7.23;;
11522;SDS011;70090;43.208;27.904;2023-07-30T04:22:37;9.20;;;7.07;;
11522;SDS011;70090;43.208;27.904;2023-07-30T04:25:07;8.40;;;7.17;;
11522;SDS011;70090;43.208;27.904;2023-07-30T04:27:37;8.30;;;6.53;;
11522;SDS011;70090;43.208;27.904;2023-07-30T04:30:04;9.67;;;6.70;;
11522;SDS011;70090;43.208;27.904;2023-07-30T04:32:32;5.73;;;5.13;;
11522;SDS011;70090;43.208;27.904;2023-07-30T04:34:59;7.97;;;5.97;;
11522;SDS011;70090;43.208;27.904;2023-07-30T04:37:26;7.37;;;6.60;;
11522;SDS011;70090;43.208;27.904;2023-07-30T04:39:53;6.93;;;6.10;;
11522;SDS011;70090;43.208;27.904;2023-07-30T04:42:20;7.10;;;5.97;;
11522;SDS011;70090;43.208;27.904;2023-07-30T04:44:48;7.13;;;5.40;;
11522;SDS011;70090;43.208;27.904;2023-07-30T04:47:15;7.13;;;6.50;;
11522;SDS011;70090;43.208;27.904;2023-07-30T04:49:42;8.80;;;6.70;;
11522;SDS011;70090;43.208;27.904;2023-07-30T04:52:09;7.97;;;6.17;;
11522;SDS011;70090;43.208;27.904;2023-07-30T04:54:35;5.80;;;4.80;;
11522;SDS011;70090;43.208;27.904;2023-07-30T04:57:03;11.03;;;5.77;;
11522;SDS011;70090;43.208;27.904;2023-07-30T04:59:30;7.17;;;5.53;;
11522;SDS011;70090;43.208;27.904;2023-07-30T05:02:00;5.53;;;5.03;;
11522;SDS011;70090;43.208;27.904;2023-07-30T05:04:27;8.20;;;6.20;;
11522;SDS011;70090;43.208;27.904;2023-07-30T05:06:54;7.40;;;4.90;;
11522;SDS011;70090;43.208;27.904;2023-07-30T05:12:06;7.63;;;5.13;;
11522;SDS011;70090;43.208;27.904;2023-07-30T05:14:33;7.33;;;5.00;;
11522;SDS011;70090;43.208;27.904;2023-07-30T05:17:01;5.90;;;5.17;;
11522;SDS011;70090;43.208;27.904;2023-07-30T05:19:29;7.27;;;5.67;;
11522;SDS011;70090;43.208;27.904;2023-07-30T05:21:57;6.07;;;5.30;;
11522;SDS011;70090;43.208;27.904;2023-07-30T05:24:24;6.27;;;4.80;;
11522;SDS011;70090;43.208;27.904;2023-07-30T05:26:51;6.23;;;4.40;;
11522;SDS011;70090;43.208;27.904;2023-07-30T05:29:18;6.67;;;4.70;;
11522;SDS011;70090;43.208;27.904;2023-07-30T05:31:44;6.97;;;4.60;;
11522;SDS011;70090;43.208;27.904;2023-07-30T05:34:13;5.33;;;4.80;;
11522;SDS011;70090;43.208;27.904;2023-07-30T05:36:39;6.67;;;4.40;;
11522;SDS011;70090;43.208;27.904;2023-07-30T05:39:06;6.10;;;4.67;;
11522;SDS011;70090;43.208;27.904;2023-07-30T05:41:33;5.93;;;4.90;;
11522;SDS011;70090;43.208;27.904;2023-07-30T05:44:00;6.20;;;4.80;;
11522;SDS011;70090;43.208;27.904;2023-07-30T05:46:27;4.97;;;3.87;;
11522;SDS011;70090;43.208;27.904;2023-07-30T05:48:53;6.63;;;3.10;;
11522;SDS011;70090;43.208;27.904;2023-07-30T05:51:22;3.73;;;3.23;;
11522;SDS011;70090;43.208;27.904;2023-07-30T05:53:49;4.10;;;2.83;;
11522;SDS011;70090;43.208;27.904;2023-07-30T05:56:15;5.57;;;3.43;;
11522;SDS011;70090;43.208;27.904;2023-07-30T05:58:43;5.07;;;3.10;;
11522;SDS011;70090;43.208;27.904;2023-07-30T06:01:10;5.70;;;3.60;;
11522;SDS011;70090;43.208;27.904;2023-07-30T06:03:37;5.87;;;3.27;;
11522;SDS011;70090;43.208;27.904;2023-07-30T06:06:04;7.73;;;3.80;;
11522;SDS011;70090;43.208;27.904;2023-07-30T06:08:32;6.53;;;4.33;;
11522;SDS011;70090;43.208;27.904;2023-07-30T06:11:00;5.00;;;3.43;;
11522;SDS011;70090;43.208;27.904;2023-07-30T06:13:28;7.47;;;4.03;;
11522;SDS011;70090;43.208;27.904;2023-07-30T06:15:55;4.93;;;3.43;;
11522;SDS011;70090;43.208;27.904;2023-07-30T06:18:21;6.20;;;3.10;;
11522;SDS011;70090;43.208;27.904;2023-07-30T06:20:48;3.30;;;3.00;;
11522;SDS011;70090;43.208;27.904;2023-07-30T06:23:15;3.97;;;3.23;;
11522;SDS011;70090;43.208;27.904;2023-07-30T06:25:43;3.90;;;3.60;;
11522;SDS011;70090;43.208;27.904;2023-07-30T06:28:10;4.17;;;2.90;;
11522;SDS011;70090;43.208;27.904;2023-07-30T06:30:37;4.03;;;3.13;;
11522;SDS011;70090;43.208;27.904;2023-07-30T06:33:04;3.87;;;2.70;;
11522;SDS011;70090;43.208;27.904;2023-07-30T06:35:31;5.17;;;2.73;;
11522;SDS011;70090;43.208;27.904;2023-07-30T06:37:58;5.20;;;2.80;;
11522;SDS011;70090;43.208;27.904;2023-07-30T06:40:25;3.67;;;2.80;;
11522;SDS011;70090;43.208;27.904;2023-07-30T06:42:53;4.07;;;2.80;;
11522;SDS011;70090;43.208;27.904;2023-07-30T06:45:20;3.70;;;2.60;;
11522;SDS011;70090;43.208;27.904;2023-07-30T06:47:47;3.80;;;3.00;;
11522;SDS011;70090;43.208;27.904;2023-07-30T06:50:14;4.17;;;3.10;;
11522;SDS011;70090;43.208;27.904;2023-07-30T06:52:41;3.60;;;3.20;;
11522;SDS011;70090;43.208;27.904;2023-07-30T06:55:08;5.20;;;3.10;;
11522;SDS011;70090;43.208;27.904;2023-07-30T06:57:35;2.97;;;2.70;;
11522;SDS011;70090;43.208;27.904;2023-07-30T07:00:03;4.13;;;2.70;;
11522;SDS011;70090;43.208;27.904;2023-07-30T07:02:31;5.17;;;2.60;;
11522;SDS011;70090;43.208;27.904;2023-07-30T07:04:58;3.43;;;2.60;;
11522;SDS011;70090;43.208;27.904;2023-07-30T07:07:25;3.80;;;2.57;;
11522;SDS011;70090;43.208;27.904;2023-07-30T07:09:52;4.93;;;3.00;;
11522;SDS011;70090;43.208;27.904;2023-07-30T07:12:18;6.33;;;3.00;;
11522;SDS011;70090;43.208;27.904;2023-07-30T07:14:45;4.00;;;2.90;;
11522;SDS011;70090;43.208;27.904;2023-07-30T07:17:14;3.63;;;3.10;;
11522;SDS011;70090;43.208;27.904;2023-07-30T07:19:40;4.47;;;3.20;;
11522;SDS011;70090;43.208;27.904;2023-07-30T07:22:07;3.70;;;3.13;;
11522;SDS011;70090;43.208;27.904;2023-07-30T07:24:35;6.63;;;3.60;;
11522;SDS011;70090;43.208;27.904;2023-07-30T07:27:01;6.33;;;3.07;;
11522;SDS011;70090;43.208;27.904;2023-07-30T07:29:28;4.07;;;2.83;;
11522;SDS011;70090;43.208;27.904;2023-07-30T07:31:55;2.87;;;2.53;;
11522;SDS011;70090;43.208;27.904;2023-07-30T07:34:23;5.57;;;2.90;;
11522;SDS011;70090;43.208;27.904;2023-07-30T07:36:50;4.00;;;2.83;;
11522;SDS011;70090;43.208;27.904;2023-07-30T07:39:17;3.57;;;3.10;;
11522;SDS011;70090;43.208;27.904;2023-07-30T07:41:44;4.83;;;2.70;;
11522;SDS011;70090;43.208;27.904;2023-07-30T07:44:11;4.93;;;3.20;;
11522;SDS011;70090;43.208;27.904;2023-07-30T07:46:38;3.53;;;3.17;;
11522;SDS011;70090;43.208;27.904;2023-07-30T07:49:05;3.57;;;3.27;;
11522;SDS011;70090;43.208;27.904;2023-07-30T07:51:35;4.33;;;2.70;;
11522;SDS011;70090;43.208;27.904;2023-07-30T07:54:02;3.50;;;3.17;;
11522;SDS011;70090;43.208;27.904;2023-07-30T07:56:29;3.63;;;3.00;;
11522;SDS011;70090;43.208;27.904;2023-07-30T07:58:56;3.17;;;2.70;;
11522;SDS011;70090;43.208;27.904;2023-07-30T08:01:23;4.13;;;3.00;;
11522;SDS011;70090;43.208;27.904;2023-07-30T08:03:50;3.47;;;2.80;;
11522;SDS011;70090;43.208;27.904;2023-07-30T08:06:17;3.20;;;2.90;;
11522;SDS011;70090;43.208;27.904;2023-07-30T08:08:45;4.77;;;3.43;;
11522;SDS011;70090;43.208;27.904;2023-07-30T08:11:12;4.90;;;2.80;;
11522;SDS011;70090;43.208;27.904;2023-07-30T08:13:39;3.10;;;2.80;;
11522;SDS011;70090;43.208;27.904;2023-07-30T08:16:06;2.97;;;2.67;;
11522;SDS011;70090;43.208;27.904;2023-07-30T08:18:33;4.17;;;3.33;;
11522;SDS011;70090;43.208;27.904;2023-07-30T08:21:00;2.80;;;2.60;;
11522;SDS011;70090;43.208;27.904;2023-07-30T08:23:27;2.50;;;2.30;;
11522;SDS011;70090;43.208;27.904;2023-07-30T08:25:55;6.17;;;3.20;;
11522;SDS011;70090;43.208;27.904;2023-07-30T08:28:22;4.43;;;2.60;;
11522;SDS011;70090;43.208;27.904;2023-07-30T08:30:49;3.53;;;2.60;;
11522;SDS011;70090;43.208;27.904;2023-07-30T08:33:16;3.60;;;3.10;;
11522;SDS011;70090;43.208;27.904;2023-07-30T08:35:42;3.50;;;2.53;;
11522;SDS011;70090;43.208;27.904;2023-07-30T08:38:09;3.57;;;2.90;;
11522;SDS011;70090;43.208;27.904;2023-07-30T08:40:36;6.60;;;3.20;;
11522;SDS011;70090;43.208;27.904;2023-07-30T08:43:05;2.93;;;2.60;;
11522;SDS011;70090;43.208;27.904;2023-07-30T08:45:32;3.33;;;2.70;;
11522;SDS011;70090;43.208;27.904;2023-07-30T08:47:59;2.67;;;2.47;;
11522;SDS011;70090;43.208;27.904;2023-07-30T08:50:26;3.13;;;2.90;;
11522;SDS011;70090;43.208;27.904;2023-07-30T08:52:54;3.30;;;2.50;;
11522;SDS011;70090;43.208;27.904;2023-07-30T08:55:22;3.80;;;2.87;;
11522;SDS011;70090;43.208;27.904;2023-07-30T08:57:49;4.70;;;2.80;;
11522;SDS011;70090;43.208;27.904;2023-07-30T09:00:19;4.53;;;3.97;;
11522;SDS011;70090;43.208;27.904;2023-07-30T09:02:49;3.20;;;2.87;;
11522;SDS011;70090;43.208;27.904;2023-07-30T09:05:19;3.40;;;3.10;;
11522;SDS011;70090;43.208;27.904;2023-07-30T09:07:46;4.33;;;2.93;;
11522;SDS011;70090;43.208;27.904;2023-07-30T09:10:13;4.80;;;2.90;;
11522;SDS011;70090;43.208;27.904;2023-07-30T09:12:41;3.20;;;2.90;;
11522;SDS011;70090;43.208;27.904;2023-07-30T09:15:08;5.17;;;3.17;;
11522;SDS011;70090;43.208;27.904;2023-07-30T09:17:36;3.37;;;2.83;;
11522;SDS011;70090;43.208;27.904;2023-07-30T09:20:04;6.27;;;3.03;;
11522;SDS011;70090;43.208;27.904;2023-07-30T09:22:32;3.67;;;2.70;;
11522;SDS011;70090;43.208;27.904;2023-07-30T09:25:01;3.63;;;3.07;;
11522;SDS011;70090;43.208;27.904;2023-07-30T09:27:29;3.20;;;2.90;;
11522;SDS011;70090;43.208;27.904;2023-07-30T09:29:58;3.80;;;2.60;;
11522;SDS011;70090;43.208;27.904;2023-07-30T09:32:26;3.50;;;2.80;;
11522;SDS011;70090;43.208;27.904;2023-07-30T09:34:55;3.27;;;2.97;;
11522;SDS011;70090;43.208;27.904;2023-07-30T09:37:30;3.43;;;2.43;;
11522;SDS011;70090;43.208;27.904;2023-07-30T09:39:58;3.33;;;2.70;;
11522;SDS011;70090;43.208;27.904;2023-07-30T09:42:26;3.10;;;2.57;;
11522;SDS011;70090;43.208;27.904;2023-07-30T09:44:54;3.40;;;3.10;;
11522;SDS011;70090;43.208;27.904;2023-07-30T09:47:25;3.90;;;2.90;;
11522;SDS011;70090;43.208;27.904;2023-07-30T09:49:53;3.00;;;2.70;;
11522;SDS011;70090;43.208;27.904;2023-07-30T09:52:21;2.70;;;2.33;;
11522;SDS011;70090;43.208;27.904;2023-07-30T09:54:48;5.33;;;2.53;;
11522;SDS011;70090;43.208;27.904;2023-07-30T09:57:15;3.50;;;2.60;;
11522;SDS011;70090;43.208;27.904;2023-07-30T09:59:43;3.10;;;2.80;;
11522;SDS011;70090;43.208;27.904;2023-07-30T10:02:10;5.07;;;2.50;;
11522;SDS011;70090;43.208;27.904;2023-07-30T10:04:41;4.33;;;3.10;;
11522;SDS011;70090;43.208;27.904;2023-07-30T10:07:12;3.30;;;2.73;;
11522;SDS011;70090;43.208;27.904;2023-07-30T10:09:44;2.87;;;2.67;;
11522;SDS011;70090;43.208;27.904;2023-07-30T10:12:15;2.90;;;2.57;;
11522;SDS011;70090;43.208;27.904;2023-07-30T10:14:44;3.93;;;2.63;;
11522;SDS011;70090;43.208;27.904;2023-07-30T10:17:11;2.80;;;2.50;;
11522;SDS011;70090;43.208;27.904;2023-07-30T10:19:38;3.27;;;2.40;;
11522;SDS011;70090;43.208;27.904;2023-07-30T10:22:19;3.63;;;3.00;;
11522;SDS011;70090;43.208;27.904;2023-07-30T10:24:56;2.77;;;2.30;;
11522;SDS011;70090;43.208;27.904;2023-07-30T10:27:26;4.03;;;2.57;;
11522;SDS011;70090;43.208;27.904;2023-07-30T10:30:08;3.03;;;2.60;;
11522;SDS011;70090;43.208;27.904;2023-07-30T10:32:38;3.97;;;2.47;;
11522;SDS011;70090;43.208;27.904;2023-07-30T10:35:06;5.97;;;3.20;;
11522;SDS011;70090;43.208;27.904;2023-07-30T10:37:33;6.90;;;3.20;;
11522;SDS011;70090;43.208;27.904;2023-07-30T10:40:01;3.47;;;3.10;;
11522;SDS011;70090;43.208;27.904;2023-07-30T10:42:43;4.50;;;3.13;;
11522;SDS011;70090;43.208;27.904;2023-07-30T10:45:10;8.87;;;3.37;;
11522;SDS011;70090;43.208;27.904;2023-07-30T10:47:37;3.83;;;3.43;;
11522;SDS011;70090;43.208;27.904;2023-07-30T10:50:04;5.80;;;4.30;;
11522;SDS011;70090;43.208;27.904;2023-07-30T10:52:32;4.43;;;3.80;;
11522;SDS011;70090;43.208;27.904;2023-07-30T10:55:03;5.60;;;4.83;;
11522;SDS011;70090;43.208;27.904;2023-07-30T10:57:31;3.90;;;3.40;;
11522;SDS011;70090;43.208;27.904;2023-07-30T10:59:58;5.60;;;4.97;;
11522;SDS011;70090;43.208;27.904;2023-07-30T11:02:27;3.60;;;3.30;;
11522;SDS011;70090;43.208;27.904;2023-07-30T11:04:54;2.87;;;2.60;;
11522;SDS011;70090;43.208;27.904;2023-07-30T11:07:21;3.40;;;3.10;;
11522;SDS011;70090;43.208;27.904;2023-07-30T11:09:57;5.33;;;3.67;;
11522;SDS011;70090;43.208;27.904;2023-07-30T11:12:27;3.00;;;2.60;;
11522;SDS011;70090;43.208;27.904;2023-07-30T11:14:59;3.00;;;2.80;;
11522;SDS011;70090;43.208;27.904;2023-07-30T11:17:27;3.87;;;3.13;;
11522;SDS011;70090;43.208;27.904;2023-07-30T11:19:54;3.10;;;2.80;;
11522;SDS011;70090;43.208;27.904;2023-07-30T11:22:28;3.43;;;2.23;;
11522;SDS011;70090;43.208;27.904;2023-07-30T11:24:56;2.97;;;2.53;;
11522;SDS011;70090;43.208;27.904;2023-07-30T11:27:23;2.73;;;2.50;;
11522;SDS011;70090;43.208;27.904;2023-07-30T11:29:57;3.33;;;3.00;;
11522;SDS011;70090;43.208;27.904;2023-07-30T11:32:24;2.60;;;2.40;;
11522;SDS011;70090;43.208;27.904;2023-07-30T11:34:55;2.67;;;2.40;;
11522;SDS011;70090;43.208;27.904;2023-07-30T11:37:22;2.73;;;2.30;;
11522;SDS011;70090;43.208;27.904;2023-07-30T11:39:49;2.47;;;2.27;;
11522;SDS011;70090;43.208;27.904;2023-07-30T11:42:17;2.90;;;2.23;;
11522;SDS011;70090;43.208;27.904;2023-07-30T11:44:44;2.40;;;2.20;;
11522;SDS011;70090;43.208;27.904;2023-07-30T11:47:13;4.70;;;2.83;;
11522;SDS011;70090;43.208;27.904;2023-07-30T11:49:54;4.13;;;2.50;;
11522;SDS011;70090;43.208;27.904;2023-07-30T11:52:21;3.40;;;3.10;;
11522;SDS011;70090;43.208;27.904;2023-07-30T11:54:49;3.80;;;3.00;;
11522;SDS011;70090;43.208;27.904;2023-07-30T11:57:32;4.20;;;2.83;;
11522;SDS011;70090;43.208;27.904;2023-07-30T12:00:00;3.50;;;2.80;;
11522;SDS011;70090;43.208;27.904;2023-07-30T12:02:29;3.50;;;2.30;;
11522;SDS011;70090;43.208;27.904;2023-07-30T12:04:56;3.83;;;2.60;;
11522;SDS011;70090;43.208;27.904;2023-07-30T12:07:24;2.97;;;2.67;;
11522;SDS011;70090;43.208;27.904;2023-07-30T12:09:51;4.10;;;2.10;;
11522;SDS011;70090;43.208;27.904;2023-07-30T12:12:18;5.10;;;2.40;;
11522;SDS011;70090;43.208;27.904;2023-07-30T12:14:52;2.50;;;2.30;;
11522;SDS011;70090;43.208;27.904;2023-07-30T12:17:20;3.30;;;2.90;;
11522;SDS011;70090;43.208;27.904;2023-07-30T12:19:49;2.67;;;2.30;;
11522;SDS011;70090;43.208;27.904;2023-07-30T12:22:16;2.90;;;2.30;;
11522;SDS011;70090;43.208;27.904;2023-07-30T12:24:43;3.37;;;2.30;;
11522;SDS011;70090;43.208;27.904;2023-07-30T12:27:09;3.30;;;2.27;;
11522;SDS011;70090;43.208;27.904;2023-07-30T12:29:36;3.10;;;2.70;;
11522;SDS011;70090;43.208;27.904;2023-07-30T12:32:03;2.90;;;2.30;;
11522;SDS011;70090;43.208;27.904;2023-07-30T12:34:30;2.97;;;2.53;;
11522;SDS011;70090;43.208;27.904;2023-07-30T12:36:58;3.20;;;2.70;;
11522;SDS011;70090;43.208;27.904;2023-07-30T12:39:25;3.20;;;2.40;;
11522;SDS011;70090;43.208;27.904;2023-07-30T12:41:52;2.50;;;2.30;;
11522;SDS011;70090;43.208;27.904;2023-07-30T12:44:19;3.17;;;2.47;;
11522;SDS011;70090;43.208;27.904;2023-07-30T12:46:46;3.27;;;2.70;;
11522;SDS011;70090;43.208;27.904;2023-07-30T12:49:13;3.03;;;2.70;;
11522;SDS011;70090;43.208;27.904;2023-07-30T12:51:40;2.60;;;2.40;;
11522;SDS011;70090;43.208;27.904;2023-07-30T12:54:08;3.10;;;2.00;;
11522;SDS011;70090;43.208;27.904;2023-07-30T12:56:35;2.57;;;2.30;;
11522;SDS011;70090;43.208;27.904;2023-07-30T12:59:02;3.47;;;2.40;;
11522;SDS011;70090;43.208;27.904;2023-07-30T13:01:28;2.93;;;2.23;;
11522;SDS011;70090;43.208;27.904;2023-07-30T13:03:55;3.30;;;2.30;;
11522;SDS011;70090;43.208;27.904;2023-07-30T13:06:22;2.50;;;2.30;;
11522;SDS011;70090;43.208;27.904;2023-07-30T13:08:49;2.47;;;2.13;;
11522;SDS011;70090;43.208;27.904;2023-07-30T13:11:17;3.67;;;2.47;;
11522;SDS011;70090;43.208;27.904;2023-07-30T13:13:44;2.80;;;2.10;;
11522;SDS011;70090;43.208;27.904;2023-07-30T13:16:11;2.53;;;2.20;;
11522;SDS011;70090;43.208;27.904;2023-07-30T13:18:38;2.40;;;2.20;;
11522;SDS011;70090;43.208;27.904;2023-07-30T13:21:04;3.57;;;2.20;;
11522;SDS011;70090;43.208;27.904;2023-07-30T13:23:31;2.40;;;2.20;;
11522;SDS011;70090;43.208;27.904;2023-07-30T13:25:59;2.43;;;2.10;;
11522;SDS011;70090;43.208;27.904;2023-07-30T13:28:28;3.40;;;2.27;;
11522;SDS011;70090;43.208;27.904;2023-07-30T13:30:54;3.63;;;2.17;;
11522;SDS011;70090;43.208;27.904;2023-07-30T13:33:22;3.63;;;2.30;;
11522;SDS011;70090;43.208;27.904;2023-07-30T13:35:49;3.10;;;2.10;;
11522;SDS011;70090;43.208;27.904;2023-07-30T13:38:16;2.87;;;2.10;;
11522;SDS011;70090;43.208;27.904;2023-07-30T13:40:42;3.50;;;2.30;;
11522;SDS011;70090;43.208;27.904;2023-07-30T13:43:09;2.07;;;1.90;;
11522;SDS011;70090;43.208;27.904;2023-07-30T13:45:38;5.20;;;2.80;;
11522;SDS011;70090;43.208;27.904;2023-07-30T13:48:04;3.77;;;2.20;;
11522;SDS011;70090;43.208;27.904;2023-07-30T13:50:31;3.97;;;2.10;;
11522;SDS011;70090;43.208;27.904;2023-07-30T13:52:58;2.57;;;2.30;;
11522;SDS011;70090;43.208;27.904;2023-07-30T13:55:25;4.17;;;2.40;;
11522;SDS011;70090;43.208;27.904;2023-07-30T13:57:52;3.57;;;2.67;;
11522;SDS011;70090;43.208;27.904;2023-07-30T14:00:19;4.20;;;2.50;;
11522;SDS011;70090;43.208;27.904;2023-07-30T14:02:47;3.63;;;2.43;;
11522;SDS011;70090;43.208;27.904;2023-07-30T14:05:16;3.40;;;3.07;;
11522;SDS011;70090;43.208;27.904;2023-07-30T14:07:43;2.80;;;2.40;;
11522;SDS011;70090;43.208;27.904;2023-07-30T14:10:10;7.43;;;2.50;;
11522;SDS011;70090;43.208;27.904;2023-07-30T14:12:38;5.13;;;2.67;;
11522;SDS011;70090;43.208;27.904;2023-07-30T14:15:05;3.73;;;2.30;;
11522;SDS011;70090;43.208;27.904;2023-07-30T14:17:33;2.30;;;2.10;;
11522;SDS011;70090;43.208;27.904;2023-07-30T14:20:01;2.50;;;2.20;;
11522;SDS011;70090;43.208;27.904;2023-07-30T14:22:28;3.03;;;2.20;;
11522;SDS011;70090;43.208;27.904;2023-07-30T14:24:55;2.27;;;2.03;;
11522;SDS011;70090;43.208;27.904;2023-07-30T14:27:22;4.37;;;2.27;;
11522;SDS011;70090;43.208;27.904;2023-07-30T14:29:50;3.00;;;2.00;;
11522;SDS011;70090;43.208;27.904;2023-07-30T14:32:17;3.00;;;2.20;;
11522;SDS011;70090;43.208;27.904;2023-07-30T14:34:44;4.53;;;2.40;;
11522;SDS011;70090;43.208;27.904;2023-07-30T14:37:12;3.27;;;2.00;;
11522;SDS011;70090;43.208;27.904;2023-07-30T14:39:40;4.13;;;2.50;;